sensor_id;sensor_type;location;lat;lon;timestamp;P1;durP1;ratioP1;P2;durP2;ratioP2
34926;SDS011;21132;48.308;14.274;2022-12-05T00:01:35;11.70;;;7.13;;
34926;SDS011;21132;48.308;14.274;2022-12-05T00:04:07;11.05;;;7.13;;
34926;SDS011;21132;48.308;14.274;2022-12-05T00:06:35;12.10;;;6.85;;
34926;SDS011;21132;48.308;14.274;2022-12-05T00:09:03;8.88;;;6.20;;
34926;SDS011;21132;48.308;14.274;2022-12-05T00:11:36;11.25;;;7.00;;
34926;SDS011;21132;48.308;14.274;2022-12-05T00:14:03;9.70;;;6.13;;
34926;SDS011;21132;48.308;14.274;2022-12-05T00:16:31;10.35;;;6.35;;
34926;SDS011;21132;48.308;14.274;2022-12-05T00:19:05;10.00;;;6.50;;
34926;SDS011;21132;48.308;14.274;2022-12-05T00:21:32;12.18;;;7.25;;
34926;SDS011;21132;48.308;14.274;2022-12-05T00:24:00;11.32;;;6.90;;
34926;SDS011;21132;48.308;14.274;2022-12-05T00:26:29;13.75;;;7.63;;
34926;SDS011;21132;48.308;14.274;2022-12-05T00:28:59;9.90;;;6.88;;
34926;SDS011;21132;48.308;14.274;2022-12-05T00:31:28;12.18;;;7.22;;
34926;SDS011;21132;48.308;14.274;2022-12-05T00:33:54;12.52;;;7.65;;
34926;SDS011;21132;48.308;14.274;2022-12-05T00:36:34;15.40;;;8.82;;
34926;SDS011;21132;48.308;14.274;2022-12-05T00:39:03;11.98;;;7.72;;
34926;SDS011;21132;48.308;14.274;2022-12-05T00:41:32;12.55;;;7.53;;
34926;SDS011;21132;48.308;14.274;2022-12-05T00:44:01;12.05;;;7.40;;
34926;SDS011;21132;48.308;14.274;2022-12-05T00:46:30;11.35;;;7.32;;
34926;SDS011;21132;48.308;14.274;2022-12-05T00:48:59;12.52;;;7.45;;
34926;SDS011;21132;48.308;14.274;2022-12-05T00:51:33;12.68;;;8.00;;
34926;SDS011;21132;48.308;14.274;2022-12-05T00:56:35;11.23;;;6.90;;
34926;SDS011;21132;48.308;14.274;2022-12-05T00:59:05;11.73;;;7.75;;
34926;SDS011;21132;48.308;14.274;2022-12-05T01:01:38;11.13;;;6.93;;
34926;SDS011;21132;48.308;14.274;2022-12-05T01:04:06;11.68;;;7.40;;
34926;SDS011;21132;48.308;14.274;2022-12-05T01:06:37;11.10;;;7.45;;
34926;SDS011;21132;48.308;14.274;2022-12-05T01:09:06;13.98;;;7.90;;
34926;SDS011;21132;48.308;14.274;2022-12-05T01:11:37;13.48;;;8.48;;
34926;SDS011;21132;48.308;14.274;2022-12-05T01:14:03;12.35;;;7.97;;
34926;SDS011;21132;48.308;14.274;2022-12-05T01:16:32;13.85;;;8.95;;
34926;SDS011;21132;48.308;14.274;2022-12-05T01:19:07;13.77;;;8.25;;
34926;SDS011;21132;48.308;14.274;2022-12-05T01:21:38;10.80;;;7.32;;
34926;SDS011;21132;48.308;14.274;2022-12-05T01:24:08;11.73;;;6.90;;
34926;SDS011;21132;48.308;14.274;2022-12-05T01:26:35;10.23;;;6.22;;
34926;SDS011;21132;48.308;14.274;2022-12-05T01:29:01;11.93;;;7.03;;
34926;SDS011;21132;48.308;14.274;2022-12-05T01:31:32;9.90;;;6.10;;
34926;SDS011;21132;48.308;14.274;2022-12-05T01:34:00;9.82;;;6.13;;
34926;SDS011;21132;48.308;14.274;2022-12-05T01:36:30;14.48;;;7.55;;
34926;SDS011;21132;48.308;14.274;2022-12-05T01:38:56;9.75;;;6.50;;
34926;SDS011;21132;48.308;14.274;2022-12-05T01:41:24;10.38;;;6.65;;
34926;SDS011;21132;48.308;14.274;2022-12-05T01:46:43;8.65;;;6.10;;
34926;SDS011;21132;48.308;14.274;2022-12-05T01:51:49;15.27;;;7.53;;
34926;SDS011;21132;48.308;14.274;2022-12-05T01:54:22;11.68;;;6.95;;
34926;SDS011;21132;48.308;14.274;2022-12-05T01:56:53;11.77;;;7.30;;
34926;SDS011;21132;48.308;14.274;2022-12-05T01:59:28;10.88;;;6.97;;
34926;SDS011;21132;48.308;14.274;2022-12-05T02:02:03;9.07;;;6.50;;
34926;SDS011;21132;48.308;14.274;2022-12-05T02:04:29;9.18;;;6.57;;
34926;SDS011;21132;48.308;14.274;2022-12-05T02:06:58;9.27;;;6.28;;
34926;SDS011;21132;48.308;14.274;2022-12-05T02:09:35;12.63;;;6.85;;
34926;SDS011;21132;48.308;14.274;2022-12-05T02:12:04;10.85;;;6.57;;
34926;SDS011;21132;48.308;14.274;2022-12-05T02:14:40;15.52;;;7.90;;
34926;SDS011;21132;48.308;14.274;2022-12-05T02:17:19;13.40;;;7.40;;
34926;SDS011;21132;48.308;14.274;2022-12-05T02:23:11;11.40;;;7.03;;
34926;SDS011;21132;48.308;14.274;2022-12-05T02:37:27;10.25;;;6.65;;
34926;SDS011;21132;48.308;14.274;2022-12-05T02:40:04;10.50;;;6.47;;
34926;SDS011;21132;48.308;14.274;2022-12-05T02:42:55;9.10;;;5.88;;
34926;SDS011;21132;48.308;14.274;2022-12-05T02:45:26;12.73;;;7.57;;
34926;SDS011;21132;48.308;14.274;2022-12-05T02:47:57;9.25;;;6.00;;
34926;SDS011;21132;48.308;14.274;2022-12-05T02:50:26;9.35;;;6.03;;
34926;SDS011;21132;48.308;14.274;2022-12-05T02:52:59;11.63;;;6.88;;
34926;SDS011;21132;48.308;14.274;2022-12-05T02:55:31;10.93;;;7.18;;
34926;SDS011;21132;48.308;14.274;2022-12-05T02:57:59;11.50;;;7.32;;
34926;SDS011;21132;48.308;14.274;2022-12-05T03:00:29;9.88;;;6.68;;
34926;SDS011;21132;48.308;14.274;2022-12-05T03:02:57;11.85;;;6.78;;
34926;SDS011;21132;48.308;14.274;2022-12-05T03:05:43;15.15;;;7.35;;
34926;SDS011;21132;48.308;14.274;2022-12-05T03:08:20;12.07;;;7.95;;
34926;SDS011;21132;48.308;14.274;2022-12-05T03:10:50;12.32;;;7.90;;
34926;SDS011;21132;48.308;14.274;2022-12-05T03:13:31;13.20;;;7.97;;
34926;SDS011;21132;48.308;14.274;2022-12-05T03:16:07;11.30;;;7.60;;
34926;SDS011;21132;48.308;14.274;2022-12-05T03:19:02;13.02;;;7.72;;
34926;SDS011;21132;48.308;14.274;2022-12-05T03:21:42;15.65;;;8.77;;
34926;SDS011;21132;48.308;14.274;2022-12-05T03:24:20;18.10;;;9.10;;
34926;SDS011;21132;48.308;14.274;2022-12-05T03:32:08;20.38;;;12.68;;
34926;SDS011;21132;48.308;14.274;2022-12-05T03:37:18;21.98;;;13.05;;
34926;SDS011;21132;48.308;14.274;2022-12-05T03:40:08;24.05;;;13.98;;
34926;SDS011;21132;48.308;14.274;2022-12-05T03:42:45;20.85;;;12.73;;
34926;SDS011;21132;48.308;14.274;2022-12-05T03:45:19;20.30;;;12.35;;
34926;SDS011;21132;48.308;14.274;2022-12-05T03:50:40;23.30;;;12.63;;
34926;SDS011;21132;48.308;14.274;2022-12-05T03:53:12;22.30;;;12.70;;
34926;SDS011;21132;48.308;14.274;2022-12-05T03:55:48;19.52;;;12.95;;
34926;SDS011;21132;48.308;14.274;2022-12-05T03:58:26;17.15;;;11.20;;
34926;SDS011;21132;48.308;14.274;2022-12-05T04:01:00;17.40;;;11.32;;
34926;SDS011;21132;48.308;14.274;2022-12-05T04:03:39;18.20;;;11.82;;
34926;SDS011;21132;48.308;14.274;2022-12-05T04:06:28;15.93;;;10.93;;
34926;SDS011;21132;48.308;14.274;2022-12-05T04:09:04;18.48;;;11.23;;
34926;SDS011;21132;48.308;14.274;2022-12-05T04:11:40;18.48;;;11.63;;
34926;SDS011;21132;48.308;14.274;2022-12-05T04:14:25;15.25;;;11.10;;
34926;SDS011;21132;48.308;14.274;2022-12-05T04:17:08;17.58;;;11.48;;
34926;SDS011;21132;48.308;14.274;2022-12-05T04:19:54;16.00;;;10.80;;
34926;SDS011;21132;48.308;14.274;2022-12-05T04:22:59;15.48;;;10.85;;
34926;SDS011;21132;48.308;14.274;2022-12-05T04:25:31;16.02;;;10.95;;
34926;SDS011;21132;48.308;14.274;2022-12-05T04:30:47;15.10;;;10.27;;
34926;SDS011;21132;48.308;14.274;2022-12-05T04:38:41;14.60;;;9.98;;
34926;SDS011;21132;48.308;14.274;2022-12-05T04:41:23;16.05;;;9.48;;
34926;SDS011;21132;48.308;14.274;2022-12-05T04:43:56;15.80;;;10.65;;
34926;SDS011;21132;48.308;14.274;2022-12-05T04:46:26;15.55;;;10.57;;
34926;SDS011;21132;48.308;14.274;2022-12-05T04:48:53;15.48;;;10.40;;
34926;SDS011;21132;48.308;14.274;2022-12-05T04:51:25;15.77;;;10.60;;
34926;SDS011;21132;48.308;14.274;2022-12-05T04:53:59;15.30;;;11.38;;
34926;SDS011;21132;48.308;14.274;2022-12-05T04:56:39;17.88;;;11.80;;
34926;SDS011;21132;48.308;14.274;2022-12-05T04:59:08;15.40;;;11.00;;
34926;SDS011;21132;48.308;14.274;2022-12-05T05:01:37;15.13;;;10.68;;
34926;SDS011;21132;48.308;14.274;2022-12-05T05:04:25;16.67;;;11.23;;
34926;SDS011;21132;48.308;14.274;2022-12-05T05:06:55;19.92;;;12.95;;
34926;SDS011;21132;48.308;14.274;2022-12-05T05:09:26;15.05;;;10.85;;
34926;SDS011;21132;48.308;14.274;2022-12-05T05:11:55;17.90;;;12.93;;
34926;SDS011;21132;48.308;14.274;2022-12-05T05:14:26;18.35;;;12.73;;
34926;SDS011;21132;48.308;14.274;2022-12-05T05:16:55;19.88;;;12.85;;
34926;SDS011;21132;48.308;14.274;2022-12-05T05:21:57;15.60;;;10.18;;
34926;SDS011;21132;48.308;14.274;2022-12-05T05:24:26;15.05;;;10.63;;
34926;SDS011;21132;48.308;14.274;2022-12-05T05:26:52;15.93;;;11.23;;
34926;SDS011;21132;48.308;14.274;2022-12-05T05:29:23;16.63;;;10.73;;
34926;SDS011;21132;48.308;14.274;2022-12-05T05:31:52;16.00;;;10.77;;
34926;SDS011;21132;48.308;14.274;2022-12-05T05:34:20;13.10;;;9.27;;
34926;SDS011;21132;48.308;14.274;2022-12-05T05:36:49;12.85;;;9.23;;
34926;SDS011;21132;48.308;14.274;2022-12-05T05:39:22;17.00;;;9.57;;
34926;SDS011;21132;48.308;14.274;2022-12-05T05:41:50;14.52;;;9.48;;
34926;SDS011;21132;48.308;14.274;2022-12-05T05:44:19;13.68;;;9.07;;
34926;SDS011;21132;48.308;14.274;2022-12-05T05:46:47;11.95;;;8.95;;
34926;SDS011;21132;48.308;14.274;2022-12-05T05:49:16;11.23;;;8.38;;
34926;SDS011;21132;48.308;14.274;2022-12-05T05:51:41;14.60;;;9.85;;
34926;SDS011;21132;48.308;14.274;2022-12-05T05:54:10;13.20;;;9.60;;
34926;SDS011;21132;48.308;14.274;2022-12-05T05:56:44;14.65;;;9.95;;
34926;SDS011;21132;48.308;14.274;2022-12-05T05:59:12;13.05;;;8.63;;
34926;SDS011;21132;48.308;14.274;2022-12-05T06:01:38;11.40;;;7.68;;
34926;SDS011;21132;48.308;14.274;2022-12-05T06:04:04;11.27;;;8.07;;
34926;SDS011;21132;48.308;14.274;2022-12-05T06:06:30;11.77;;;8.15;;
34926;SDS011;21132;48.308;14.274;2022-12-05T06:08:56;11.15;;;8.05;;
34926;SDS011;21132;48.308;14.274;2022-12-05T06:11:22;13.20;;;9.27;;
34926;SDS011;21132;48.308;14.274;2022-12-05T06:13:50;16.52;;;10.57;;
34926;SDS011;21132;48.308;14.274;2022-12-05T06:16:20;16.80;;;10.13;;
34926;SDS011;21132;48.308;14.274;2022-12-05T06:18:48;14.55;;;9.57;;
34926;SDS011;21132;48.308;14.274;2022-12-05T06:21:15;14.65;;;9.63;;
34926;SDS011;21132;48.308;14.274;2022-12-05T06:23:44;15.30;;;10.27;;
34926;SDS011;21132;48.308;14.274;2022-12-05T06:26:14;14.40;;;9.25;;
34926;SDS011;21132;48.308;14.274;2022-12-05T06:28:46;14.90;;;9.85;;
34926;SDS011;21132;48.308;14.274;2022-12-05T06:31:16;13.95;;;8.85;;
34926;SDS011;21132;48.308;14.274;2022-12-05T06:33:47;14.85;;;9.55;;
34926;SDS011;21132;48.308;14.274;2022-12-05T06:36:17;14.65;;;9.05;;
34926;SDS011;21132;48.308;14.274;2022-12-05T06:38:45;14.68;;;9.80;;
34926;SDS011;21132;48.308;14.274;2022-12-05T06:41:13;15.40;;;10.10;;
34926;SDS011;21132;48.308;14.274;2022-12-05T06:43:41;17.10;;;10.40;;
34926;SDS011;21132;48.308;14.274;2022-12-05T06:46:11;20.88;;;12.02;;
34926;SDS011;21132;48.308;14.274;2022-12-05T06:48:38;16.83;;;11.15;;
34926;SDS011;21132;48.308;14.274;2022-12-05T06:51:13;18.77;;;11.55;;
34926;SDS011;21132;48.308;14.274;2022-12-05T06:53:40;16.88;;;10.43;;
34926;SDS011;21132;48.308;14.274;2022-12-05T06:56:08;18.50;;;11.27;;
34926;SDS011;21132;48.308;14.274;2022-12-05T06:58:39;17.15;;;11.40;;
34926;SDS011;21132;48.308;14.274;2022-12-05T07:01:09;20.38;;;11.40;;
34926;SDS011;21132;48.308;14.274;2022-12-05T07:03:54;20.92;;;11.18;;
34926;SDS011;21132;48.308;14.274;2022-12-05T07:06:20;18.50;;;11.10;;
34926;SDS011;21132;48.308;14.274;2022-12-05T07:08:46;17.75;;;11.27;;
34926;SDS011;21132;48.308;14.274;2022-12-05T07:11:12;18.70;;;11.50;;
34926;SDS011;21132;48.308;14.274;2022-12-05T07:13:38;19.27;;;10.98;;
34926;SDS011;21132;48.308;14.274;2022-12-05T07:16:07;19.65;;;11.23;;
34926;SDS011;21132;48.308;14.274;2022-12-05T07:18:33;18.55;;;11.07;;
34926;SDS011;21132;48.308;14.274;2022-12-05T07:21:03;22.05;;;12.80;;
34926;SDS011;21132;48.308;14.274;2022-12-05T07:23:31;18.92;;;11.63;;
34926;SDS011;21132;48.308;14.274;2022-12-05T07:25:57;21.48;;;11.35;;
34926;SDS011;21132;48.308;14.274;2022-12-05T07:28:33;20.42;;;10.85;;
34926;SDS011;21132;48.308;14.274;2022-12-05T07:31:02;19.02;;;10.75;;
34926;SDS011;21132;48.308;14.274;2022-12-05T07:33:33;18.35;;;10.98;;
34926;SDS011;21132;48.308;14.274;2022-12-05T07:35:59;16.85;;;10.40;;
34926;SDS011;21132;48.308;14.274;2022-12-05T07:38:26;18.83;;;11.38;;
34926;SDS011;21132;48.308;14.274;2022-12-05T07:40:53;18.30;;;10.93;;
34926;SDS011;21132;48.308;14.274;2022-12-05T07:43:21;16.98;;;10.65;;
34926;SDS011;21132;48.308;14.274;2022-12-05T07:45:48;18.50;;;11.38;;
34926;SDS011;21132;48.308;14.274;2022-12-05T07:48:14;18.00;;;10.85;;
34926;SDS011;21132;48.308;14.274;2022-12-05T07:50:40;19.17;;;11.15;;
34926;SDS011;21132;48.308;14.274;2022-12-05T07:53:06;17.85;;;10.88;;
34926;SDS011;21132;48.308;14.274;2022-12-05T07:55:32;19.60;;;11.35;;
34926;SDS011;21132;48.308;14.274;2022-12-05T07:58:00;17.48;;;10.95;;
34926;SDS011;21132;48.308;14.274;2022-12-05T08:00:25;18.63;;;11.40;;
34926;SDS011;21132;48.308;14.274;2022-12-05T08:02:51;15.90;;;10.70;;
34926;SDS011;21132;48.308;14.274;2022-12-05T08:05:17;21.50;;;12.23;;
34926;SDS011;21132;48.308;14.274;2022-12-05T08:07:43;19.15;;;11.60;;
34926;SDS011;21132;48.308;14.274;2022-12-05T08:10:09;18.85;;;10.95;;
34926;SDS011;21132;48.308;14.274;2022-12-05T08:12:35;18.25;;;11.27;;
34926;SDS011;21132;48.308;14.274;2022-12-05T08:15:02;17.67;;;11.63;;
34926;SDS011;21132;48.308;14.274;2022-12-05T08:17:28;25.90;;;13.27;;
34926;SDS011;21132;48.308;14.274;2022-12-05T08:19:54;22.20;;;13.02;;
34926;SDS011;21132;48.308;14.274;2022-12-05T08:22:23;23.73;;;12.95;;
34926;SDS011;21132;48.308;14.274;2022-12-05T08:24:49;23.20;;;13.68;;
34926;SDS011;21132;48.308;14.274;2022-12-05T08:27:15;26.33;;;13.57;;
34926;SDS011;21132;48.308;14.274;2022-12-05T08:29:40;28.80;;;13.75;;
34926;SDS011;21132;48.308;14.274;2022-12-05T08:32:06;24.08;;;13.27;;
34926;SDS011;21132;48.308;14.274;2022-12-05T08:34:35;23.00;;;13.73;;
34926;SDS011;21132;48.308;14.274;2022-12-05T08:37:01;21.98;;;13.13;;
34926;SDS011;21132;48.308;14.274;2022-12-05T08:39:29;21.73;;;12.73;;
34926;SDS011;21132;48.308;14.274;2022-12-05T08:41:56;22.15;;;12.75;;
34926;SDS011;21132;48.308;14.274;2022-12-05T08:44:22;19.33;;;12.32;;
34926;SDS011;21132;48.308;14.274;2022-12-05T08:46:49;21.60;;;12.48;;
34926;SDS011;21132;48.308;14.274;2022-12-05T08:49:17;22.38;;;13.35;;
34926;SDS011;21132;48.308;14.274;2022-12-05T08:51:43;21.45;;;12.95;;
34926;SDS011;21132;48.308;14.274;2022-12-05T08:54:09;21.10;;;11.95;;
34926;SDS011;21132;48.308;14.274;2022-12-05T08:56:38;23.92;;;12.65;;
34926;SDS011;21132;48.308;14.274;2022-12-05T08:59:04;21.75;;;12.60;;
34926;SDS011;21132;48.308;14.274;2022-12-05T09:01:30;21.48;;;13.18;;
34926;SDS011;21132;48.308;14.274;2022-12-05T09:04:00;20.15;;;12.15;;
34926;SDS011;21132;48.308;14.274;2022-12-05T09:06:28;22.27;;;13.35;;
34926;SDS011;21132;48.308;14.274;2022-12-05T09:08:56;18.33;;;11.20;;
34926;SDS011;21132;48.308;14.274;2022-12-05T09:11:29;18.55;;;11.82;;
34926;SDS011;21132;48.308;14.274;2022-12-05T09:14:00;19.50;;;11.63;;
34926;SDS011;21132;48.308;14.274;2022-12-05T09:16:27;19.00;;;10.50;;
34926;SDS011;21132;48.308;14.274;2022-12-05T09:18:55;17.85;;;11.20;;
34926;SDS011;21132;48.308;14.274;2022-12-05T09:21:22;19.35;;;11.57;;
34926;SDS011;21132;48.308;14.274;2022-12-05T09:23:50;19.60;;;11.77;;
34926;SDS011;21132;48.308;14.274;2022-12-05T09:26:18;19.65;;;11.55;;
34926;SDS011;21132;48.308;14.274;2022-12-05T09:28:47;19.38;;;11.85;;
34926;SDS011;21132;48.308;14.274;2022-12-05T09:31:16;21.15;;;12.57;;
34926;SDS011;21132;48.308;14.274;2022-12-05T09:33:44;19.52;;;11.82;;
34926;SDS011;21132;48.308;14.274;2022-12-05T09:36:13;19.13;;;12.45;;
34926;SDS011;21132;48.308;14.274;2022-12-05T09:38:41;23.33;;;12.43;;
34926;SDS011;21132;48.308;14.274;2022-12-05T09:47:27;18.40;;;11.55;;
34926;SDS011;21132;48.308;14.274;2022-12-05T09:49:56;20.48;;;11.82;;
34926;SDS011;21132;48.308;14.274;2022-12-05T09:55:50;19.35;;;11.25;;
34926;SDS011;21132;48.308;14.274;2022-12-05T10:03:46;18.90;;;11.30;;
34926;SDS011;21132;48.308;14.274;2022-12-05T10:06:28;19.52;;;12.20;;
34926;SDS011;21132;48.308;14.274;2022-12-05T10:12:06;19.35;;;11.50;;
34926;SDS011;21132;48.308;14.274;2022-12-05T10:15:00;20.70;;;12.32;;
34926;SDS011;21132;48.308;14.274;2022-12-05T10:19:59;22.40;;;13.40;;
34926;SDS011;21132;48.308;14.274;2022-12-05T10:22:38;24.65;;;13.60;;
34926;SDS011;21132;48.308;14.274;2022-12-05T10:25:27;23.83;;;13.52;;
34926;SDS011;21132;48.308;14.274;2022-12-05T10:28:05;25.15;;;14.00;;
34926;SDS011;21132;48.308;14.274;2022-12-05T10:30:39;20.52;;;12.95;;
34926;SDS011;21132;48.308;14.274;2022-12-05T10:33:12;19.08;;;11.73;;
34926;SDS011;21132;48.308;14.274;2022-12-05T10:35:42;16.83;;;11.05;;
34926;SDS011;21132;48.308;14.274;2022-12-05T10:38:21;19.35;;;11.43;;
34926;SDS011;21132;48.308;14.274;2022-12-05T10:40:51;17.42;;;10.88;;
34926;SDS011;21132;48.308;14.274;2022-12-05T10:43:29;19.35;;;10.82;;
34926;SDS011;21132;48.308;14.274;2022-12-05T10:45:56;17.40;;;10.60;;
34926;SDS011;21132;48.308;14.274;2022-12-05T10:48:23;15.63;;;10.02;;
34926;SDS011;21132;48.308;14.274;2022-12-05T10:50:50;15.43;;;9.43;;
34926;SDS011;21132;48.308;14.274;2022-12-05T10:53:24;17.27;;;9.55;;
34926;SDS011;21132;48.308;14.274;2022-12-05T10:55:57;18.23;;;9.93;;
34926;SDS011;21132;48.308;14.274;2022-12-05T10:58:26;15.70;;;9.07;;
34926;SDS011;21132;48.308;14.274;2022-12-05T11:00:57;19.77;;;8.85;;
34926;SDS011;21132;48.308;14.274;2022-12-05T11:03:33;20.85;;;10.27;;
34926;SDS011;21132;48.308;14.274;2022-12-05T11:06:17;14.95;;;9.07;;
34926;SDS011;21132;48.308;14.274;2022-12-05T11:08:51;15.40;;;8.57;;
34926;SDS011;21132;48.308;14.274;2022-12-05T11:11:24;16.40;;;10.00;;
34926;SDS011;21132;48.308;14.274;2022-12-05T11:14:19;22.05;;;10.68;;
34926;SDS011;21132;48.308;14.274;2022-12-05T11:16:57;17.45;;;10.68;;
34926;SDS011;21132;48.308;14.274;2022-12-05T11:19:29;20.92;;;11.55;;
34926;SDS011;21132;48.308;14.274;2022-12-05T11:21:57;16.83;;;10.05;;
34926;SDS011;21132;48.308;14.274;2022-12-05T11:26:56;17.58;;;9.77;;
34926;SDS011;21132;48.308;14.274;2022-12-05T11:29:37;17.92;;;10.32;;
34926;SDS011;21132;48.308;14.274;2022-12-05T11:32:05;17.10;;;9.63;;
34926;SDS011;21132;48.308;14.274;2022-12-05T11:34:44;18.27;;;10.38;;
34926;SDS011;21132;48.308;14.274;2022-12-05T11:37:27;16.52;;;9.65;;
34926;SDS011;21132;48.308;14.274;2022-12-05T11:40:00;18.77;;;9.75;;
34926;SDS011;21132;48.308;14.274;2022-12-05T11:54:01;16.92;;;9.75;;
34926;SDS011;21132;48.308;14.274;2022-12-05T11:56:37;16.67;;;8.82;;
34926;SDS011;21132;48.308;14.274;2022-12-05T12:05:20;12.75;;;7.35;;
34926;SDS011;21132;48.308;14.274;2022-12-05T12:08:15;13.60;;;8.63;;
34926;SDS011;21132;48.308;14.274;2022-12-05T12:13:27;15.02;;;9.00;;
34926;SDS011;21132;48.308;14.274;2022-12-05T12:18:48;13.95;;;7.95;;
34926;SDS011;21132;48.308;14.274;2022-12-05T12:27:25;15.57;;;8.32;;
34926;SDS011;21132;48.308;14.274;2022-12-05T12:30:00;17.73;;;8.18;;
34926;SDS011;21132;48.308;14.274;2022-12-05T12:40:58;13.37;;;7.77;;
34926;SDS011;21132;48.308;14.274;2022-12-05T12:49:22;17.80;;;9.27;;
34926;SDS011;21132;48.308;14.274;2022-12-05T13:03:42;16.60;;;8.52;;
34926;SDS011;21132;48.308;14.274;2022-12-05T13:06:33;15.55;;;8.98;;
34926;SDS011;21132;48.308;14.274;2022-12-05T13:11:46;17.23;;;8.50;;
34926;SDS011;21132;48.308;14.274;2022-12-05T13:14:15;14.27;;;8.48;;
34926;SDS011;21132;48.308;14.274;2022-12-05T13:16:46;15.98;;;8.70;;
34926;SDS011;21132;48.308;14.274;2022-12-05T13:22:28;15.27;;;8.43;;
34926;SDS011;21132;48.308;14.274;2022-12-05T13:24:55;15.82;;;9.15;;
34926;SDS011;21132;48.308;14.274;2022-12-05T13:27:21;16.10;;;8.45;;
34926;SDS011;21132;48.308;14.274;2022-12-05T13:35:07;15.57;;;8.65;;
34926;SDS011;21132;48.308;14.274;2022-12-05T13:37:34;13.70;;;7.90;;
34926;SDS011;21132;48.308;14.274;2022-12-05T13:40:47;14.05;;;7.95;;
34926;SDS011;21132;48.308;14.274;2022-12-05T13:43:33;14.10;;;8.15;;
34926;SDS011;21132;48.308;14.274;2022-12-05T13:46:08;14.93;;;8.98;;
34926;SDS011;21132;48.308;14.274;2022-12-05T13:48:41;14.73;;;8.57;;
34926;SDS011;21132;48.308;14.274;2022-12-05T13:51:12;14.48;;;8.52;;
34926;SDS011;21132;48.308;14.274;2022-12-05T13:53:56;17.02;;;9.75;;
34926;SDS011;21132;48.308;14.274;2022-12-05T13:56:46;16.55;;;8.98;;
34926;SDS011;21132;48.308;14.274;2022-12-05T14:15:49;17.20;;;8.80;;
34926;SDS011;21132;48.308;14.274;2022-12-05T14:18:25;13.07;;;7.47;;
34926;SDS011;21132;48.308;14.274;2022-12-05T14:24:11;16.40;;;8.93;;
34926;SDS011;21132;48.308;14.274;2022-12-05T14:26:56;16.05;;;7.93;;
34926;SDS011;21132;48.308;14.274;2022-12-05T14:29:46;15.23;;;8.10;;
34926;SDS011;21132;48.308;14.274;2022-12-05T14:32:37;15.82;;;8.68;;
34926;SDS011;21132;48.308;14.274;2022-12-05T14:37:51;16.73;;;8.38;;
34926;SDS011;21132;48.308;14.274;2022-12-05T14:42:52;16.50;;;8.98;;
34926;SDS011;21132;48.308;14.274;2022-12-05T14:48:00;15.70;;;9.60;;
34926;SDS011;21132;48.308;14.274;2022-12-05T14:55:51;13.57;;;7.57;;
34926;SDS011;21132;48.308;14.274;2022-12-05T14:58:28;13.00;;;7.50;;
34926;SDS011;21132;48.308;14.274;2022-12-05T15:01:04;16.63;;;9.02;;
34926;SDS011;21132;48.308;14.274;2022-12-05T15:06:59;14.45;;;9.02;;
34926;SDS011;21132;48.308;14.274;2022-12-05T15:12:14;13.90;;;8.65;;
34926;SDS011;21132;48.308;14.274;2022-12-05T15:17:42;17.48;;;9.07;;
34926;SDS011;21132;48.308;14.274;2022-12-05T15:31:42;14.27;;;8.05;;
34926;SDS011;21132;48.308;14.274;2022-12-05T15:34:20;20.33;;;7.22;;
34926;SDS011;21132;48.308;14.274;2022-12-05T15:39:28;11.48;;;6.80;;
34926;SDS011;21132;48.308;14.274;2022-12-05T15:42:13;12.05;;;7.10;;
34926;SDS011;21132;48.308;14.274;2022-12-05T15:44:40;11.15;;;6.93;;
34926;SDS011;21132;48.308;14.274;2022-12-05T15:47:14;14.32;;;6.60;;
34926;SDS011;21132;48.308;14.274;2022-12-05T15:49:47;14.95;;;8.60;;
34926;SDS011;21132;48.308;14.274;2022-12-05T15:55:04;15.75;;;9.00;;
34926;SDS011;21132;48.308;14.274;2022-12-05T15:57:40;16.30;;;9.52;;
34926;SDS011;21132;48.308;14.274;2022-12-05T16:06:09;13.45;;;7.45;;
34926;SDS011;21132;48.308;14.274;2022-12-05T16:08:10;11.05;;;6.85;;
34926;SDS011;21132;48.308;14.274;2022-12-05T16:10:36;11.60;;;7.05;;
34926;SDS011;21132;48.308;14.274;2022-12-05T16:13:06;16.33;;;8.43;;
34926;SDS011;21132;48.308;14.274;2022-12-05T16:15:38;11.50;;;7.35;;
34926;SDS011;21132;48.308;14.274;2022-12-05T16:18:46;14.00;;;7.93;;
34926;SDS011;21132;48.308;14.274;2022-12-05T16:21:26;13.48;;;7.28;;
34926;SDS011;21132;48.308;14.274;2022-12-05T16:24:28;13.77;;;7.55;;
34926;SDS011;21132;48.308;14.274;2022-12-05T16:26:58;13.43;;;7.47;;
34926;SDS011;21132;48.308;14.274;2022-12-05T16:29:29;15.00;;;8.52;;
34926;SDS011;21132;48.308;14.274;2022-12-05T16:31:58;16.45;;;8.80;;
34926;SDS011;21132;48.308;14.274;2022-12-05T16:34:26;12.05;;;6.93;;
34926;SDS011;21132;48.308;14.274;2022-12-05T16:36:54;11.88;;;7.65;;
34926;SDS011;21132;48.308;14.274;2022-12-05T16:39:21;13.15;;;7.05;;
34926;SDS011;21132;48.308;14.274;2022-12-05T16:41:47;13.35;;;7.80;;
34926;SDS011;21132;48.308;14.274;2022-12-05T16:46:53;14.85;;;8.20;;
34926;SDS011;21132;48.308;14.274;2022-12-05T16:49:23;13.70;;;8.02;;
34926;SDS011;21132;48.308;14.274;2022-12-05T16:52:10;12.63;;;7.47;;
34926;SDS011;21132;48.308;14.274;2022-12-05T16:54:39;15.05;;;7.25;;
34926;SDS011;21132;48.308;14.274;2022-12-05T16:57:07;13.15;;;7.38;;
34926;SDS011;21132;48.308;14.274;2022-12-05T16:59:37;11.57;;;7.00;;
34926;SDS011;21132;48.308;14.274;2022-12-05T17:02:10;13.88;;;7.20;;
34926;SDS011;21132;48.308;14.274;2022-12-05T17:04:38;14.27;;;7.55;;
34926;SDS011;21132;48.308;14.274;2022-12-05T17:07:04;13.05;;;7.60;;
34926;SDS011;21132;48.308;14.274;2022-12-05T17:09:30;14.93;;;8.93;;
34926;SDS011;21132;48.308;14.274;2022-12-05T17:11:59;11.98;;;7.43;;
34926;SDS011;21132;48.308;14.274;2022-12-05T17:14:29;12.48;;;7.57;;
34926;SDS011;21132;48.308;14.274;2022-12-05T17:16:55;14.73;;;7.78;;
34926;SDS011;21132;48.308;14.274;2022-12-05T17:19:21;13.07;;;7.00;;
34926;SDS011;21132;48.308;14.274;2022-12-05T17:21:49;11.18;;;6.57;;
34926;SDS011;21132;48.308;14.274;2022-12-05T17:24:16;12.20;;;7.22;;
34926;SDS011;21132;48.308;14.274;2022-12-05T17:26:44;12.40;;;7.82;;
34926;SDS011;21132;48.308;14.274;2022-12-05T17:29:11;11.80;;;6.43;;
34926;SDS011;21132;48.308;14.274;2022-12-05T17:31:39;12.68;;;7.15;;
34926;SDS011;21132;48.308;14.274;2022-12-05T17:34:11;13.50;;;7.68;;
34926;SDS011;21132;48.308;14.274;2022-12-05T17:36:40;11.23;;;6.63;;
34926;SDS011;21132;48.308;14.274;2022-12-05T17:39:06;12.43;;;7.32;;
34926;SDS011;21132;48.308;14.274;2022-12-05T17:41:33;13.65;;;7.80;;
34926;SDS011;21132;48.308;14.274;2022-12-05T17:44:00;11.95;;;7.75;;
34926;SDS011;21132;48.308;14.274;2022-12-05T17:46:27;13.38;;;7.78;;
34926;SDS011;21132;48.308;14.274;2022-12-05T17:48:52;12.63;;;7.20;;
34926;SDS011;21132;48.308;14.274;2022-12-05T17:51:22;13.48;;;7.13;;
34926;SDS011;21132;48.308;14.274;2022-12-05T17:53:50;12.05;;;7.47;;
34926;SDS011;21132;48.308;14.274;2022-12-05T17:56:18;13.23;;;7.97;;
34926;SDS011;21132;48.308;14.274;2022-12-05T17:58:45;14.68;;;8.07;;
34926;SDS011;21132;48.308;14.274;2022-12-05T18:01:15;12.93;;;7.47;;
34926;SDS011;21132;48.308;14.274;2022-12-05T18:03:44;13.38;;;6.43;;